createdAt,value
2023-04-15T00:00:48.940Z,31.52
2023-04-15T00:02:22.443Z,32.12
2023-04-15T00:03:56.158Z,31.90
2023-04-15T00:05:32.912Z,31.57
2023-04-15T00:07:06.050Z,32.17
2023-04-15T00:08:39.746Z,31.78
2023-04-15T00:10:12.784Z,32.13
2023-04-15T00:11:46.704Z,32.15
2023-04-15T00:13:20.674Z,31.91
2023-04-15T00:14:54.966Z,32.13
2023-04-15T00:16:28.644Z,32.38
2023-04-15T00:18:02.670Z,32.18
2023-04-15T00:19:35.853Z,32.79
2023-04-15T00:21:09.610Z,32.17
2023-04-15T00:22:42.970Z,32.36
2023-04-15T00:24:16.222Z,32.38
2023-04-15T00:25:49.334Z,32.69
2023-04-15T00:27:22.553Z,32.34
2023-04-15T00:28:55.725Z,32.36
2023-04-15T00:30:29.400Z,32.57
2023-04-15T00:32:03.071Z,32.80
2023-04-15T00:33:37.346Z,32.62
2023-04-15T00:35:11.362Z,32.56
2023-04-15T00:36:45.003Z,32.88
2023-04-15T00:38:18.268Z,32.98
2023-04-15T00:39:52.226Z,32.97
2023-04-15T00:41:25.913Z,32.89
2023-04-15T00:42:59.290Z,32.80
2023-04-15T00:44:33.463Z,32.98
2023-04-15T00:46:07.974Z,32.94
2023-04-15T00:47:43.590Z,32.70
2023-04-15T00:49:17.993Z,33.16
2023-04-15T00:50:51.048Z,33.61
2023-04-15T00:52:24.239Z,33.96
2023-04-15T00:53:57.764Z,34.19
2023-04-15T00:55:31.252Z,34.22
2023-04-15T00:57:07.228Z,34.61
2023-04-15T00:58:41.173Z,34.39
2023-04-15T01:00:14.821Z,34.34
2023-04-15T01:01:48.831Z,34.41
2023-04-15T01:03:22.426Z,34.59
2023-04-15T01:04:57.422Z,34.91
2023-04-15T01:06:32.721Z,35.19
2023-04-15T01:08:06.827Z,35.60
2023-04-15T01:09:39.908Z,35.69
2023-04-15T01:11:14.159Z,35.43
2023-04-15T01:12:47.943Z,35.67
2023-04-15T01:14:22.263Z,36.25
2023-04-15T01:15:58.195Z,36.10
2023-04-15T01:17:32.047Z,36.30
2023-04-15T01:19:05.380Z,36.27
2023-04-15T01:20:39.351Z,36.12
2023-04-15T01:22:12.886Z,36.54
2023-04-15T01:23:48.958Z,36.44
2023-04-15T01:25:48.489Z,36.63
2023-04-15T01:27:22.553Z,36.61
2023-04-15T01:28:56.914Z,36.41
2023-04-15T01:30:34.147Z,36.50
2023-04-15T01:32:07.344Z,36.49
2023-04-15T01:34:00.038Z,36.43
2023-04-15T01:35:52.005Z,36.39
2023-04-15T01:37:25.589Z,36.39
2023-04-15T01:38:59.075Z,36.43
2023-04-15T01:40:32.439Z,36.68
2023-04-15T01:42:07.405Z,36.63
2023-04-15T01:43:42.207Z,36.79
2023-04-15T01:45:17.871Z,36.87
2023-04-15T01:46:52.390Z,36.75
2023-04-15T01:48:27.741Z,36.59
2023-04-15T01:50:02.382Z,36.90
2023-04-15T01:51:37.001Z,36.58
2023-04-15T01:53:11.533Z,36.55
2023-04-15T01:54:46.260Z,36.74
2023-04-15T01:56:20.974Z,36.02
2023-04-15T01:57:55.628Z,35.96
2023-04-15T01:59:32.458Z,35.31
2023-04-15T02:01:07.340Z,33.58
2023-04-15T02:02:42.200Z,32.96
2023-04-15T02:04:19.562Z,32.69
2023-04-15T02:05:54.138Z,32.43
2023-04-15T02:07:29.279Z,32.33
2023-04-15T02:09:04.670Z,32.25
2023-04-15T02:10:39.884Z,32.37
2023-04-15T02:12:14.336Z,31.85
2023-04-15T02:13:48.596Z,31.22
2023-04-15T02:15:22.986Z,30.87
2023-04-15T02:16:58.087Z,30.31
2023-04-15T02:18:32.549Z,30.37
2023-04-15T02:20:08.873Z,29.85
2023-04-15T02:21:43.379Z,29.49
2023-04-15T02:23:17.619Z,28.92
2023-04-15T02:24:52.023Z,28.90
2023-04-15T02:26:26.108Z,28.80
2023-04-15T02:28:02.770Z,28.57
2023-04-15T02:29:36.863Z,27.89
2023-04-15T02:31:11.277Z,28.11
2023-04-15T02:32:45.685Z,28.44
2023-04-15T02:34:20.126Z,28.74
2023-04-15T02:35:54.401Z,28.68
2023-04-15T02:37:29.036Z,28.21
2023-04-15T02:39:04.501Z,28.03
2023-04-15T02:40:38.794Z,27.77
2023-04-15T02:42:14.371Z,27.16
2023-04-15T02:43:49.605Z,27.18
2023-04-15T02:45:26.665Z,27.03
2023-04-15T02:47:01.100Z,27.43
2023-04-15T02:48:35.557Z,27.48
2023-04-15T02:50:13.649Z,26.92
2023-04-15T02:51:50.186Z,27.24
2023-04-15T02:53:26.279Z,27.06
2023-04-15T02:55:01.063Z,27.12
2023-04-15T02:56:37.179Z,27.15
2023-04-15T02:58:11.299Z,26.79
2023-04-15T02:59:45.716Z,26.14
2023-04-15T03:01:21.427Z,26.03
2023-04-15T03:03:03.891Z,26.15
2023-04-15T03:04:38.500Z,26.16
2023-04-15T03:06:12.892Z,26.03
2023-04-15T03:07:47.057Z,26.04
2023-04-15T03:09:21.634Z,25.79
2023-04-15T03:10:55.704Z,25.92
2023-04-15T03:12:30.632Z,25.50
2023-04-15T03:14:05.662Z,25.69
2023-04-15T03:15:42.708Z,25.10
2023-04-15T03:17:17.505Z,25.17
2023-04-15T03:18:52.749Z,25.23
2023-04-15T03:20:28.785Z,25.28
2023-04-15T03:22:03.026Z,25.69
2023-04-15T03:23:37.101Z,25.56
2023-04-15T03:25:11.921Z,25.63
2023-04-15T03:26:46.332Z,25.46
2023-04-15T03:28:23.643Z,25.47
2023-04-15T03:29:58.400Z,25.45
2023-04-15T03:31:34.367Z,25.36
2023-04-15T03:33:08.948Z,25.53
2023-04-15T03:34:44.324Z,25.48
2023-04-15T03:36:18.896Z,25.94
2023-04-15T03:37:53.128Z,25.49
2023-04-15T03:39:27.632Z,24.90
2023-04-15T03:41:02.046Z,24.77
2023-04-15T03:42:36.326Z,25.14
2023-04-15T03:44:10.683Z,25.38
2023-04-15T03:45:44.799Z,25.24
2023-04-15T03:47:19.060Z,25.14
2023-04-15T03:48:53.214Z,24.63
2023-04-15T03:50:28.020Z,24.88
2023-04-15T03:52:02.174Z,25.02
2023-04-15T03:53:36.793Z,24.36
2023-04-15T03:55:11.202Z,24.27
2023-04-15T03:56:46.072Z,24.66
2023-04-15T03:58:20.393Z,24.57
2023-04-15T03:59:54.600Z,24.90
2023-04-15T04:01:28.888Z,24.64
2023-04-15T04:03:03.215Z,24.26
2023-04-15T04:04:37.732Z,24.02
2023-04-15T04:06:12.991Z,23.97
2023-04-15T04:07:47.667Z,24.53
2023-04-15T04:09:22.025Z,24.45
2023-04-15T04:10:56.581Z,24.71
2023-04-15T04:12:30.987Z,24.57
2023-04-15T04:14:05.107Z,24.08
2023-04-15T04:15:39.577Z,24.21
2023-04-15T04:17:13.760Z,24.23
2023-04-15T04:18:48.078Z,24.07
2023-04-15T04:20:22.940Z,24.20
2023-04-15T04:21:57.569Z,24.14
2023-04-15T04:23:31.934Z,24.12
2023-04-15T04:25:07.513Z,23.56
2023-04-15T04:26:41.694Z,23.61
2023-04-15T04:28:16.137Z,23.42
2023-04-15T04:29:50.392Z,23.25
2023-04-15T04:31:24.664Z,23.64
2023-04-15T04:32:59.060Z,23.85
2023-04-15T04:34:33.391Z,23.58
2023-04-15T04:36:07.878Z,23.85
2023-04-15T04:37:42.355Z,23.90
2023-04-15T04:39:16.453Z,23.81
2023-04-15T04:40:50.695Z,23.81
2023-04-15T04:42:24.882Z,23.75
2023-04-15T04:43:59.037Z,23.17
2023-04-15T04:45:33.166Z,23.31
2023-04-15T04:47:08.000Z,23.76
2023-04-15T04:48:42.124Z,23.81
2023-04-15T04:50:17.125Z,23.88
2023-04-15T04:51:51.889Z,23.60
2023-04-15T04:53:26.771Z,22.83
2023-04-15T04:55:01.566Z,22.95
2023-04-15T04:56:36.052Z,22.82
2023-04-15T04:58:10.192Z,23.05
2023-04-15T04:59:44.333Z,23.07
2023-04-15T05:01:18.524Z,23.13
2023-04-15T05:02:53.069Z,23.09
2023-04-15T05:04:27.309Z,23.17
2023-04-15T05:06:03.470Z,23.33
2023-04-15T05:07:38.455Z,23.24
2023-04-15T05:09:12.817Z,23.22
2023-04-15T05:10:47.149Z,22.87
2023-04-15T05:12:21.439Z,22.98
2023-04-15T05:13:55.820Z,22.82
2023-04-15T05:15:30.023Z,22.76
2023-04-15T05:17:04.153Z,22.70
2023-04-15T05:18:38.378Z,22.79
2023-04-15T05:20:13.019Z,22.76
2023-04-15T05:21:47.441Z,22.84
2023-04-15T05:23:21.597Z,22.97
2023-04-15T05:24:56.328Z,22.72
2023-04-15T05:26:30.506Z,22.60
2023-04-15T05:28:04.737Z,22.54
2023-04-15T05:29:38.885Z,22.46
2023-04-15T05:31:13.153Z,22.37
2023-04-15T05:32:47.292Z,22.57
2023-04-15T05:34:21.464Z,22.82
2023-04-15T05:35:55.931Z,22.18
2023-04-15T05:37:30.122Z,22.42
2023-04-15T05:39:04.690Z,21.91
2023-04-15T05:40:38.964Z,22.30
2023-04-15T05:42:13.160Z,22.35
2023-04-15T05:43:47.476Z,21.95
2023-04-15T05:45:21.700Z,22.20
2023-04-15T05:46:56.060Z,22.37
2023-04-15T05:48:30.229Z,22.07
2023-04-15T05:50:05.148Z,22.40
2023-04-15T05:51:39.340Z,22.09
2023-04-15T05:53:13.828Z,22.28
2023-04-15T05:54:48.024Z,22.03
2023-04-15T05:56:22.514Z,21.90
2023-04-15T05:57:57.032Z,21.46
2023-04-15T05:59:32.143Z,21.64
2023-04-15T06:01:06.763Z,21.82
2023-04-15T06:02:41.382Z,21.14
2023-04-15T06:04:15.761Z,21.65
2023-04-15T06:05:50.290Z,22.10
2023-04-15T06:07:24.688Z,22.25
2023-04-15T06:08:58.978Z,22.52
2023-04-15T06:10:36.818Z,22.48
2023-04-15T06:12:12.586Z,22.42
2023-04-15T06:13:46.864Z,22.30
2023-04-15T06:15:21.184Z,22.16
2023-04-15T06:16:55.621Z,22.21
2023-04-15T06:18:29.964Z,22.47
2023-04-15T06:20:04.725Z,22.37
2023-04-15T06:21:39.176Z,22.09
2023-04-15T06:23:13.638Z,21.96
2023-04-15T06:24:48.593Z,21.91
2023-04-15T06:26:22.949Z,22.09
2023-04-15T06:27:57.371Z,21.98
2023-04-15T06:29:31.773Z,22.05
2023-04-15T06:31:06.437Z,22.27
2023-04-15T06:32:40.944Z,22.46
2023-04-15T06:34:15.429Z,22.77
2023-04-15T06:35:50.072Z,22.95
2023-04-15T06:37:24.755Z,23.27
2023-04-15T06:38:59.219Z,23.29
2023-04-15T06:40:34.039Z,23.29
2023-04-15T06:42:08.573Z,23.12
2023-04-15T06:43:42.923Z,23.54
2023-04-15T06:45:18.038Z,23.42
2023-04-15T06:46:52.424Z,23.81
2023-04-15T06:48:26.609Z,24.02
2023-04-15T06:50:00.796Z,23.71
2023-04-15T06:51:36.646Z,24.09
2023-04-15T06:53:10.780Z,24.08
2023-04-15T06:54:44.826Z,23.98
2023-04-15T06:56:19.153Z,23.72
2023-04-15T06:57:53.272Z,23.48
2023-04-15T06:59:27.742Z,23.85
2023-04-15T07:01:01.924Z,23.93
2023-04-15T07:02:36.883Z,24.08
2023-04-15T07:04:12.605Z,24.29
2023-04-15T07:05:46.967Z,24.34
2023-04-15T07:07:21.561Z,23.51
2023-04-15T07:08:56.239Z,23.89
2023-04-15T07:10:33.717Z,23.93
2023-04-15T07:12:07.961Z,24.02
2023-04-15T07:13:42.227Z,24.06
2023-04-15T07:15:17.047Z,23.95
2023-04-15T07:16:51.662Z,24.25
2023-04-15T07:18:26.412Z,23.72
2023-04-15T07:20:00.543Z,24.21
2023-04-15T07:21:35.039Z,24.09
2023-04-15T07:23:09.333Z,24.01
2023-04-15T07:24:43.614Z,24.47
2023-04-15T07:26:18.428Z,24.37
2023-04-15T07:27:53.727Z,24.21
2023-04-15T07:29:27.709Z,24.02
2023-04-15T07:31:02.402Z,23.99
2023-04-15T07:32:36.890Z,24.01
2023-04-15T07:34:11.198Z,23.87
2023-04-15T07:35:45.635Z,23.63
2023-04-15T07:37:20.230Z,23.99
2023-04-15T07:38:58.227Z,23.84
2023-04-15T07:40:32.877Z,23.21
2023-04-15T07:42:07.255Z,23.45
2023-04-15T07:43:41.549Z,23.36
2023-04-15T07:45:16.707Z,23.34
2023-04-15T07:46:51.060Z,23.12
2023-04-15T07:48:25.182Z,23.37
2023-04-15T07:50:00.693Z,23.39
2023-04-15T07:51:35.010Z,23.57
2023-04-15T07:53:09.962Z,23.69
2023-04-15T07:54:44.105Z,23.51
2023-04-15T07:56:18.417Z,23.04
2023-04-15T07:57:52.495Z,23.86
2023-04-15T07:59:28.151Z,23.49
2023-04-15T08:01:02.342Z,23.05
2023-04-15T08:02:39.659Z,23.21
2023-04-15T08:04:15.056Z,23.24
2023-04-15T08:05:49.659Z,23.25
2023-04-15T08:07:24.566Z,23.29
2023-04-15T08:08:59.056Z,23.13
2023-04-15T08:10:33.400Z,23.16
2023-04-15T08:12:09.933Z,22.90
2023-04-15T08:13:44.170Z,22.78
2023-04-15T08:15:18.742Z,22.97
2023-04-15T08:16:53.246Z,23.20
2023-04-15T08:18:27.835Z,22.92
2023-04-15T08:20:02.086Z,23.03
2023-04-15T08:21:37.106Z,22.89
2023-04-15T08:23:11.490Z,22.90
2023-04-15T08:24:46.284Z,23.15
2023-04-15T08:26:22.404Z,23.03
2023-04-15T08:27:59.812Z,22.76
2023-04-15T08:29:34.640Z,23.13
2023-04-15T08:31:12.384Z,23.28
2023-04-15T08:32:50.419Z,22.81
2023-04-15T08:34:25.627Z,22.52
2023-04-15T08:35:59.897Z,22.41
2023-04-15T08:37:34.103Z,22.72
2023-04-15T08:39:08.882Z,22.89
2023-04-15T08:40:45.394Z,22.97
2023-04-15T08:42:33.018Z,22.73
2023-04-15T08:44:07.634Z,22.66
2023-04-15T08:45:42.843Z,22.94
2023-04-15T08:47:21.984Z,22.79
2023-04-15T08:48:59.228Z,22.67
2023-04-15T08:50:33.726Z,22.58
2023-04-15T08:52:09.624Z,22.51
2023-04-15T08:53:45.160Z,22.76
2023-04-15T08:55:20.941Z,22.38
2023-04-15T08:56:55.717Z,22.29
2023-04-15T08:58:30.533Z,22.48
2023-04-15T09:00:06.104Z,22.29
2023-04-15T09:01:41.233Z,22.55
2023-04-15T09:03:15.609Z,22.38
2023-04-15T09:04:50.292Z,22.46
2023-04-15T09:06:24.977Z,22.52
2023-04-15T09:07:59.258Z,22.33
2023-04-15T09:09:34.769Z,22.28
2023-04-15T09:11:09.060Z,22.55
2023-04-15T09:12:43.724Z,22.47
2023-04-15T09:14:18.566Z,22.40
2023-04-15T09:15:54.117Z,22.53
2023-04-15T09:17:28.525Z,22.58
2023-04-15T09:19:21.816Z,22.84
2023-04-15T09:20:56.066Z,22.74
2023-04-15T09:22:33.427Z,22.61
2023-04-15T09:24:08.052Z,22.55
2023-04-15T09:25:42.911Z,22.80
2023-04-15T09:27:17.551Z,22.37
2023-04-15T09:28:52.187Z,22.64
2023-04-15T09:30:27.841Z,22.67
2023-04-15T09:32:13.091Z,22.70
2023-04-15T09:33:57.629Z,22.73
2023-04-15T09:35:31.828Z,23.14
2023-04-15T09:37:07.539Z,23.00
2023-04-15T09:38:57.555Z,23.04
2023-04-15T09:40:40.088Z,22.73
2023-04-15T09:42:14.506Z,22.88
2023-04-15T09:43:49.199Z,22.54
2023-04-15T09:45:25.688Z,22.42
2023-04-15T09:47:02.272Z,22.72
2023-04-15T09:48:38.043Z,22.63
2023-04-15T09:50:12.271Z,22.85
2023-04-15T09:51:57.585Z,23.00
2023-04-15T09:53:39.305Z,22.72
2023-04-15T09:55:14.834Z,22.67
2023-04-15T09:56:49.163Z,22.80
2023-04-15T09:58:28.262Z,22.55
2023-04-15T10:00:07.198Z,23.02
2023-04-15T10:01:43.178Z,22.78
2023-04-15T10:03:44.410Z,22.54
2023-04-15T10:05:19.056Z,22.82
2023-04-15T10:06:53.258Z,22.49
2023-04-15T10:08:33.305Z,22.75
2023-04-15T10:10:08.502Z,22.62
2023-04-15T10:11:43.827Z,22.49
2023-04-15T10:13:21.039Z,22.88
2023-04-15T10:15:06.381Z,22.76
2023-04-15T10:16:44.284Z,22.65
2023-04-15T10:18:22.302Z,22.35
2023-04-15T10:19:57.150Z,22.77
2023-04-15T10:21:32.476Z,22.42
2023-04-15T10:23:09.474Z,22.57
2023-04-15T10:24:45.758Z,22.82
2023-04-15T10:26:20.557Z,22.54
2023-04-15T10:27:54.954Z,22.79
2023-04-15T10:29:30.013Z,22.46
2023-04-15T10:31:09.218Z,22.46
2023-04-15T10:32:44.415Z,22.58
2023-04-15T10:34:19.493Z,22.41
2023-04-15T10:35:55.918Z,22.57
2023-04-15T10:37:38.185Z,22.58
2023-04-15T10:39:37.680Z,22.40
2023-04-15T10:41:31.474Z,22.01
2023-04-15T10:43:05.905Z,22.04
2023-04-15T10:44:43.693Z,22.07
2023-04-15T10:46:23.086Z,22.26
2023-04-15T10:48:00.438Z,22.51
2023-04-15T10:49:36.126Z,22.31
2023-04-15T10:51:10.797Z,22.37
2023-04-15T10:52:45.336Z,22.45
2023-04-15T10:54:25.110Z,22.54
2023-04-15T10:56:00.236Z,22.25
2023-04-15T10:57:41.729Z,22.39
2023-04-15T10:59:16.714Z,22.49
2023-04-15T11:00:54.879Z,22.52
2023-04-15T11:02:47.649Z,22.43
2023-04-15T11:05:00.339Z,22.59
2023-04-15T11:07:05.938Z,22.72
2023-04-15T11:09:03.782Z,22.67
2023-04-15T11:10:38.003Z,22.32
2023-04-15T11:12:12.351Z,22.30
2023-04-15T11:13:51.259Z,22.15
2023-04-15T11:15:43.601Z,22.09
2023-04-15T11:17:31.511Z,22.05
2023-04-15T11:19:05.688Z,22.18
2023-04-15T11:20:43.139Z,22.40
2023-04-15T11:22:17.519Z,22.26
2023-04-15T11:23:51.641Z,22.37
2023-04-15T11:25:28.106Z,22.54
2023-04-15T11:27:02.942Z,22.44
2023-04-15T11:28:39.156Z,22.48
2023-04-15T11:30:22.248Z,22.53
2023-04-15T11:32:07.043Z,22.18
2023-04-15T11:34:01.945Z,22.18
2023-04-15T11:35:37.094Z,22.24
2023-04-15T11:37:12.070Z,22.52
2023-04-15T11:38:48.358Z,22.47
2023-04-15T11:40:29.974Z,22.39
2023-04-15T11:42:04.233Z,22.58
2023-04-15T11:43:38.731Z,22.45
2023-04-15T11:45:15.102Z,22.25
2023-04-15T11:46:49.340Z,22.43
2023-04-15T11:48:27.572Z,22.61
2023-04-15T11:50:22.725Z,22.67
2023-04-15T11:51:55.956Z,22.56
2023-04-15T11:53:49.589Z,22.49
2023-04-15T11:55:26.648Z,22.69
2023-04-15T11:57:00.683Z,22.54
2023-04-15T11:58:37.947Z,22.52
2023-04-15T12:00:11.491Z,22.49
2023-04-15T12:01:46.841Z,22.73
2023-04-15T12:03:29.398Z,22.64
2023-04-15T12:05:07.295Z,22.90
2023-04-15T12:06:41.610Z,22.47
2023-04-15T12:08:14.800Z,22.44
2023-04-15T12:09:57.143Z,22.42
2023-04-15T12:11:32.869Z,22.61
2023-04-15T12:13:07.876Z,22.62
2023-04-15T12:14:42.706Z,22.38
2023-04-15T12:16:20.369Z,22.19
2023-04-15T12:17:55.375Z,22.40
2023-04-15T12:19:35.645Z,22.65
2023-04-15T12:21:12.547Z,22.27
2023-04-15T12:22:45.644Z,22.23
2023-04-15T12:24:22.868Z,22.06
2023-04-15T12:25:55.794Z,22.22
2023-04-15T12:27:29.868Z,22.19
2023-04-15T12:29:07.933Z,22.12
2023-04-15T12:30:54.642Z,22.30
2023-04-15T12:32:27.759Z,22.58
2023-04-15T12:34:01.430Z,22.84
2023-04-15T12:35:34.551Z,22.70
2023-04-15T12:37:10.137Z,22.53
2023-04-15T12:38:43.092Z,22.58
2023-04-15T12:40:15.838Z,22.53
2023-04-15T12:41:48.766Z,22.39
2023-04-15T12:43:22.155Z,22.33
2023-04-15T12:44:55.049Z,22.50
2023-04-15T12:46:28.759Z,22.49
2023-04-15T12:48:02.044Z,22.62
2023-04-15T12:49:35.576Z,22.50
2023-04-15T12:51:08.785Z,22.51
2023-04-15T12:52:42.073Z,22.30
2023-04-15T12:54:15.296Z,22.46
2023-04-15T12:55:48.727Z,22.52
2023-04-15T12:57:21.660Z,22.50
2023-04-15T12:58:54.940Z,22.33
2023-04-15T13:00:28.219Z,22.42
2023-04-15T13:02:03.103Z,22.28
2023-04-15T13:03:36.629Z,22.47
2023-04-15T13:05:28.379Z,22.60
2023-04-15T13:07:04.343Z,22.85
2023-04-15T13:08:42.574Z,22.64
2023-04-15T13:10:18.612Z,22.67
2023-04-15T13:11:53.072Z,22.81
2023-04-15T13:13:26.588Z,22.92
2023-04-15T13:14:59.519Z,22.85
2023-04-15T13:16:33.228Z,22.69
2023-04-15T13:18:08.080Z,22.75
2023-04-15T13:19:41.179Z,22.86
2023-04-15T13:21:14.365Z,22.77
2023-04-15T13:22:47.479Z,22.78
2023-04-15T13:24:20.590Z,22.83
2023-04-15T13:25:53.638Z,23.12
2023-04-15T13:27:26.890Z,23.12
2023-04-15T13:29:00.378Z,23.11
2023-04-15T13:30:33.744Z,22.85
2023-04-15T13:32:07.234Z,22.97
2023-04-15T13:33:40.616Z,22.96
2023-04-15T13:35:13.755Z,23.12
2023-04-15T13:36:47.434Z,23.47
2023-04-15T13:38:20.758Z,23.36
2023-04-15T13:39:53.649Z,23.55
2023-04-15T13:41:26.563Z,23.40
2023-04-15T13:43:00.351Z,23.48
2023-04-15T13:44:33.901Z,23.63
2023-04-15T13:46:06.831Z,23.64
2023-04-15T13:47:41.131Z,23.36
2023-04-15T13:49:14.114Z,23.06
2023-04-15T13:50:47.294Z,23.39
2023-04-15T13:52:20.487Z,23.40
2023-04-15T13:53:53.489Z,23.28
2023-04-15T13:55:27.592Z,23.27
2023-04-15T13:57:02.625Z,23.11
2023-04-15T13:58:38.329Z,23.40
2023-04-15T14:00:12.348Z,23.42
2023-04-15T14:01:45.648Z,23.34
2023-04-15T14:03:18.873Z,23.17
2023-04-15T14:04:54.691Z,23.24
2023-04-15T14:06:32.665Z,23.30
2023-04-15T14:08:06.868Z,23.45
2023-04-15T14:09:43.618Z,23.21
2023-04-15T14:11:17.245Z,23.31
2023-04-15T14:12:50.424Z,23.03
2023-04-15T14:14:26.623Z,23.04
2023-04-15T14:16:00.117Z,23.28
2023-04-15T14:17:34.406Z,23.21
2023-04-15T14:19:08.009Z,23.27
2023-04-15T14:20:41.346Z,23.71
2023-04-15T14:22:14.522Z,23.75
2023-04-15T14:23:47.593Z,23.42
2023-04-15T14:25:32.813Z,23.72
2023-04-15T14:27:09.106Z,23.18
2023-04-15T14:28:45.387Z,23.54
2023-04-15T14:30:18.547Z,23.22
2023-04-15T14:32:07.646Z,23.23
2023-04-15T14:33:45.108Z,23.27
2023-04-15T14:35:18.760Z,23.57
2023-04-15T14:36:55.721Z,23.35
2023-04-15T14:38:28.873Z,23.20
2023-04-15T14:40:02.106Z,23.16
2023-04-15T14:41:36.319Z,23.31
2023-04-15T14:43:09.592Z,23.05
2023-04-15T14:44:44.500Z,22.98
2023-04-15T14:46:21.068Z,22.64
2023-04-15T14:47:55.103Z,22.82
2023-04-15T14:49:29.168Z,22.97
2023-04-15T14:51:02.519Z,23.28
2023-04-15T14:52:39.154Z,23.15
2023-04-15T14:54:12.392Z,23.44
2023-04-15T14:55:46.596Z,23.58
2023-04-15T14:57:22.663Z,23.55
2023-04-15T14:58:55.726Z,23.19
2023-04-15T15:00:28.645Z,23.60
2023-04-15T15:02:01.739Z,23.57
2023-04-15T15:03:34.902Z,23.20
2023-04-15T15:05:10.454Z,23.54
2023-04-15T15:06:43.645Z,23.63
2023-04-15T15:08:16.819Z,23.70
2023-04-15T15:09:49.781Z,23.93
2023-04-15T15:11:22.760Z,23.86
2023-04-15T15:12:55.770Z,24.42
2023-04-15T15:14:29.198Z,23.87
2023-04-15T15:16:02.862Z,23.90
2023-04-15T15:17:36.439Z,23.93
2023-04-15T15:19:10.091Z,23.56
2023-04-15T15:20:43.682Z,23.93
2023-04-15T15:22:16.568Z,23.68
2023-04-15T15:23:49.574Z,24.03
2023-04-15T15:25:22.566Z,23.64
2023-04-15T15:26:56.056Z,24.06
2023-04-15T15:28:28.882Z,23.81
2023-04-15T15:30:02.088Z,24.22
2023-04-15T15:31:36.627Z,24.15
2023-04-15T15:33:09.931Z,24.17
2023-04-15T15:34:42.787Z,23.88
2023-04-15T15:36:16.573Z,24.03
2023-04-15T15:37:50.082Z,24.37
2023-04-15T15:39:24.376Z,24.29
2023-04-15T15:41:00.312Z,24.35
2023-04-15T15:42:33.568Z,24.42
2023-04-15T15:44:07.398Z,24.62
2023-04-15T15:45:41.062Z,24.48
2023-04-15T15:47:13.988Z,24.83
2023-04-15T15:48:47.231Z,24.48
2023-04-15T15:50:21.474Z,24.51
2023-04-15T15:51:54.472Z,24.73
2023-04-15T15:53:27.589Z,24.57
2023-04-15T15:55:02.315Z,24.87
2023-04-15T15:56:35.515Z,24.90
2023-04-15T15:58:08.772Z,24.86
2023-04-15T15:59:43.920Z,25.23
2023-04-15T16:01:17.504Z,24.98
2023-04-15T16:03:06.193Z,24.96
2023-04-15T16:04:41.103Z,24.97
2023-04-15T16:06:13.951Z,24.78
2023-04-15T16:07:46.802Z,24.75
2023-04-15T16:09:20.131Z,24.81
2023-04-15T16:10:53.399Z,24.78
2023-04-15T16:12:26.254Z,24.88
2023-04-15T16:13:59.027Z,24.87
2023-04-15T16:15:32.098Z,24.93
2023-04-15T16:17:05.116Z,24.96
2023-04-15T16:18:38.922Z,25.08
2023-04-15T16:20:11.965Z,25.03
2023-04-15T16:21:45.095Z,25.01
2023-04-15T16:23:18.162Z,24.99
2023-04-15T16:24:51.248Z,25.14
2023-04-15T16:26:24.379Z,24.93
2023-04-15T16:28:01.309Z,25.07
2023-04-15T16:29:39.047Z,25.33
2023-04-15T16:31:12.599Z,25.39
2023-04-15T16:32:45.781Z,25.31
2023-04-15T16:34:20.197Z,25.51
2023-04-15T16:35:53.410Z,25.44
2023-04-15T16:37:26.455Z,25.32
2023-04-15T16:38:59.463Z,25.47
2023-04-15T16:40:33.412Z,25.43
2023-04-15T16:42:07.637Z,25.23
2023-04-15T16:43:40.820Z,25.35
2023-04-15T16:45:13.765Z,25.45
2023-04-15T16:46:47.021Z,25.30
2023-04-15T16:48:20.577Z,25.50
2023-04-15T16:49:53.457Z,25.42
2023-04-15T16:51:26.862Z,25.47
2023-04-15T16:53:00.016Z,25.44
2023-04-15T16:54:35.398Z,25.59
2023-04-15T16:56:11.635Z,25.57
2023-04-15T16:58:01.900Z,25.59
2023-04-15T16:59:36.219Z,25.74
2023-04-15T17:01:10.576Z,25.71
2023-04-15T17:02:44.030Z,26.13
2023-04-15T17:04:17.422Z,25.86
2023-04-15T17:05:50.856Z,25.94
2023-04-15T17:07:23.734Z,26.20
2023-04-15T17:08:57.247Z,26.07
2023-04-15T17:10:31.733Z,25.99
2023-04-15T17:12:05.285Z,25.80
2023-04-15T17:13:39.104Z,25.94
2023-04-15T17:15:12.224Z,26.06
2023-04-15T17:16:50.795Z,26.19
2023-04-15T17:18:23.943Z,26.16
2023-04-15T17:20:14.651Z,26.13
2023-04-15T17:21:48.401Z,26.34
2023-04-15T17:23:28.276Z,26.21
2023-04-15T17:25:01.334Z,26.07
2023-04-15T17:26:38.815Z,26.04
2023-04-15T17:28:11.851Z,26.31
2023-04-15T17:29:48.972Z,26.05
2023-04-15T17:31:41.981Z,26.24
2023-04-15T17:33:59.955Z,26.34
2023-04-15T17:35:48.048Z,26.40
2023-04-15T17:37:40.661Z,26.59
2023-04-15T17:39:33.494Z,26.55
2023-04-15T17:41:26.814Z,26.32
2023-04-15T17:43:19.515Z,26.55
2023-04-15T17:45:12.290Z,26.59
2023-04-15T17:47:05.193Z,26.37
2023-04-15T17:48:58.526Z,26.64
2023-04-15T17:50:52.047Z,26.44
2023-04-15T17:52:45.171Z,26.50
2023-04-15T17:54:37.818Z,26.33
2023-04-15T17:56:30.748Z,26.34
2023-04-15T17:58:24.205Z,26.31
2023-04-15T18:00:17.506Z,26.60
2023-04-15T18:02:11.247Z,26.23
2023-04-15T18:04:04.750Z,26.43
2023-04-15T18:05:57.842Z,26.19
2023-04-15T18:07:53.378Z,26.15
2023-04-15T18:09:46.622Z,26.34
2023-04-15T18:11:44.147Z,26.37
2023-04-15T18:13:36.950Z,26.40
2023-04-15T18:15:31.730Z,26.44
2023-04-15T18:17:24.698Z,26.61
2023-04-15T18:19:18.214Z,26.73
2023-04-15T18:20:51.292Z,26.70
2023-04-15T18:22:24.237Z,26.74
2023-04-15T18:23:57.230Z,26.86
2023-04-15T18:25:32.281Z,26.81
2023-04-15T18:27:05.646Z,26.53
2023-04-15T18:28:41.714Z,26.64
2023-04-15T18:30:14.879Z,26.46
2023-04-15T18:31:47.958Z,26.82
2023-04-15T18:33:21.566Z,26.63
2023-04-15T18:34:56.122Z,26.73
2023-04-15T18:36:29.935Z,26.85
2023-04-15T18:38:03.064Z,26.89
2023-04-15T18:39:37.315Z,26.94
2023-04-15T18:41:10.204Z,26.97
2023-04-15T18:42:43.047Z,26.97
2023-04-15T18:44:16.456Z,27.06
2023-04-15T18:45:49.723Z,27.27
2023-04-15T18:47:23.473Z,27.00
2023-04-15T18:48:57.776Z,27.30
2023-04-15T18:50:31.141Z,27.10
2023-04-15T18:52:05.643Z,27.21
2023-04-15T18:53:39.141Z,27.21
2023-04-15T18:55:12.317Z,27.36
2023-04-15T18:56:45.483Z,27.10
2023-04-15T18:58:18.861Z,27.15
2023-04-15T18:59:51.996Z,27.12
2023-04-15T19:01:25.063Z,27.57
2023-04-15T19:02:58.013Z,27.54
2023-04-15T19:04:31.455Z,27.45
2023-04-15T19:06:04.912Z,27.71
2023-04-15T19:07:38.166Z,27.21
2023-04-15T19:09:11.049Z,27.61
2023-04-15T19:10:44.007Z,27.40
2023-04-15T19:12:16.935Z,27.62
2023-04-15T19:13:49.711Z,27.69
2023-04-15T19:15:22.706Z,27.49
2023-04-15T19:16:56.618Z,27.68
2023-04-15T19:18:29.805Z,27.63
2023-04-15T19:20:03.473Z,27.77
2023-04-15T19:21:37.026Z,27.92
2023-04-15T19:23:11.126Z,28.05
2023-04-15T19:24:44.375Z,28.07
2023-04-15T19:26:17.579Z,28.05
2023-04-15T19:27:50.659Z,27.93
2023-04-15T19:29:25.186Z,27.94
2023-04-15T19:30:58.928Z,27.86
2023-04-15T19:32:31.937Z,27.94
2023-04-15T19:34:05.130Z,27.92
2023-04-15T19:35:38.674Z,27.66
2023-04-15T19:37:11.990Z,27.72
2023-04-15T19:38:44.967Z,28.02
2023-04-15T19:40:18.126Z,27.93
2023-04-15T19:41:52.453Z,27.92
2023-04-15T19:43:26.658Z,28.09
2023-04-15T19:44:59.563Z,28.05
2023-04-15T19:46:32.998Z,28.05
2023-04-15T19:48:06.651Z,27.81
2023-04-15T19:49:39.609Z,27.99
2023-04-15T19:51:13.035Z,27.82
2023-04-15T19:52:46.192Z,27.98
2023-04-15T19:54:19.405Z,27.67
2023-04-15T19:55:52.372Z,27.81
2023-04-15T19:57:25.581Z,28.01
2023-04-15T19:59:00.098Z,27.66
2023-04-15T20:00:33.304Z,27.69
2023-04-15T20:02:06.435Z,27.88
2023-04-15T20:03:39.451Z,28.17
2023-04-15T20:05:12.974Z,28.06
2023-04-15T20:06:46.234Z,27.71
2023-04-15T20:08:19.252Z,28.16
2023-04-15T20:09:52.688Z,28.19
2023-04-15T20:12:45.008Z,27.84
2023-04-15T20:13:22.651Z,27.68
2023-04-15T20:14:55.608Z,28.32
2023-04-15T20:16:28.640Z,28.38
2023-04-15T20:18:01.772Z,28.14
2023-04-15T20:19:34.953Z,28.32
2023-04-15T20:21:07.844Z,28.00
2023-04-15T20:22:40.426Z,28.09
2023-04-15T20:24:13.533Z,28.24
2023-04-15T20:25:46.822Z,28.35
2023-04-15T20:27:21.153Z,28.06
2023-04-15T20:28:55.210Z,28.52
2023-04-15T20:30:29.518Z,28.43
2023-04-15T20:32:03.245Z,28.13
2023-04-15T20:33:36.389Z,28.21
2023-04-15T20:35:09.581Z,28.20